sensor_id;sensor_type;location;lat;lon;timestamp;temperature;humidity
25482;DHT22;13395;50.752;4.268;2022-10-31T00:01:55;14.60;99.90
25482;DHT22;13395;50.752;4.268;2022-10-31T00:04:21;14.60;99.90
25482;DHT22;13395;50.752;4.268;2022-10-31T00:06:46;14.50;99.90
25482;DHT22;13395;50.752;4.268;2022-10-31T00:09:12;14.50;99.90
25482;DHT22;13395;50.752;4.268;2022-10-31T00:11:37;14.50;99.90
25482;DHT22;13395;50.752;4.268;2022-10-31T00:14:03;14.50;99.90
25482;DHT22;13395;50.752;4.268;2022-10-31T00:16:29;14.40;99.90
25482;DHT22;13395;50.752;4.268;2022-10-31T00:18:59;14.30;99.90
25482;DHT22;13395;50.752;4.268;2022-10-31T00:21:25;14.40;99.90
25482;DHT22;13395;50.752;4.268;2022-10-31T00:23:51;14.40;99.90
25482;DHT22;13395;50.752;4.268;2022-10-31T00:26:16;14.40;99.90
25482;DHT22;13395;50.752;4.268;2022-10-31T00:28:42;14.30;99.90
25482;DHT22;13395;50.752;4.268;2022-10-31T00:31:08;14.30;99.90
25482;DHT22;13395;50.752;4.268;2022-10-31T00:33:35;14.20;99.90
25482;DHT22;13395;50.752;4.268;2022-10-31T00:36:02;14.20;99.90
25482;DHT22;13395;50.752;4.268;2022-10-31T00:38:28;14.10;99.90
25482;DHT22;13395;50.752;4.268;2022-10-31T00:40:53;14.10;99.90
25482;DHT22;13395;50.752;4.268;2022-10-31T00:43:19;14.00;99.90
25482;DHT22;13395;50.752;4.268;2022-10-31T00:45:44;14.00;99.90
25482;DHT22;13395;50.752;4.268;2022-10-31T00:48:10;14.00;99.90
25482;DHT22;13395;50.752;4.268;2022-10-31T00:50:35;13.90;99.90
25482;DHT22;13395;50.752;4.268;2022-10-31T00:53:01;13.80;99.90
25482;DHT22;13395;50.752;4.268;2022-10-31T00:55:27;13.70;99.90
25482;DHT22;13395;50.752;4.268;2022-10-31T00:57:52;13.70;99.90
25482;DHT22;13395;50.752;4.268;2022-10-31T01:00:17;13.70;99.90
25482;DHT22;13395;50.752;4.268;2022-10-31T01:02:43;13.70;99.90
25482;DHT22;13395;50.752;4.268;2022-10-31T01:05:08;13.70;99.90
25482;DHT22;13395;50.752;4.268;2022-10-31T01:07:37;13.60;99.90
25482;DHT22;13395;50.752;4.268;2022-10-31T01:10:04;13.60;99.90
25482;DHT22;13395;50.752;4.268;2022-10-31T01:12:30;13.60;99.90
25482;DHT22;13395;50.752;4.268;2022-10-31T01:14:55;13.50;99.90
25482;DHT22;13395;50.752;4.268;2022-10-31T01:17:20;13.60;99.90
25482;DHT22;13395;50.752;4.268;2022-10-31T01:19:46;13.60;99.90
25482;DHT22;13395;50.752;4.268;2022-10-31T01:22:11;13.60;99.90
25482;DHT22;13395;50.752;4.268;2022-10-31T01:24:37;13.60;99.90
25482;DHT22;13395;50.752;4.268;2022-10-31T01:27:03;13.50;99.90
25482;DHT22;13395;50.752;4.268;2022-10-31T01:29:29;13.50;99.90
25482;DHT22;13395;50.752;4.268;2022-10-31T01:31:54;13.50;99.90
25482;DHT22;13395;50.752;4.268;2022-10-31T01:34:19;13.50;99.90
25482;DHT22;13395;50.752;4.268;2022-10-31T01:36:45;13.40;99.90
25482;DHT22;13395;50.752;4.268;2022-10-31T01:39:16;13.40;99.90
25482;DHT22;13395;50.752;4.268;2022-10-31T01:41:43;13.40;99.90
25482;DHT22;13395;50.752;4.268;2022-10-31T01:46:43;13.20;99.90
25482;DHT22;13395;50.752;4.268;2022-10-31T01:51:52;13.20;99.90
25482;DHT22;13395;50.752;4.268;2022-10-31T01:54:19;13.10;99.90
25482;DHT22;13395;50.752;4.268;2022-10-31T01:56:51;13.10;99.90
25482;DHT22;13395;50.752;4.268;2022-10-31T01:59:19;13.10;99.90
25482;DHT22;13395;50.752;4.268;2022-10-31T02:01:46;13.00;99.90
25482;DHT22;13395;50.752;4.268;2022-10-31T02:04:12;13.00;99.90
25482;DHT22;13395;50.752;4.268;2022-10-31T02:06:41;13.00;99.90
25482;DHT22;13395;50.752;4.268;2022-10-31T02:09:08;13.00;99.90
25482;DHT22;13395;50.752;4.268;2022-10-31T02:11:34;13.00;99.90
25482;DHT22;13395;50.752;4.268;2022-10-31T02:14:00;13.00;99.90
25482;DHT22;13395;50.752;4.268;2022-10-31T02:16:26;13.00;99.90
25482;DHT22;13395;50.752;4.268;2022-10-31T02:18:52;13.00;99.90
25482;DHT22;13395;50.752;4.268;2022-10-31T02:21:19;12.90;99.90
25482;DHT22;13395;50.752;4.268;2022-10-31T02:31:26;12.80;99.90
25482;DHT22;13395;50.752;4.268;2022-10-31T02:33:58;12.80;99.90
25482;DHT22;13395;50.752;4.268;2022-10-31T02:36:28;12.80;99.90
25482;DHT22;13395;50.752;4.268;2022-10-31T02:43:56;12.70;99.90
25482;DHT22;13395;50.752;4.268;2022-10-31T02:48:52;12.70;99.90
25482;DHT22;13395;50.752;4.268;2022-10-31T02:51:19;12.60;99.90
25482;DHT22;13395;50.752;4.268;2022-10-31T02:53:45;12.70;99.90
25482;DHT22;13395;50.752;4.268;2022-10-31T02:56:11;12.60;99.90
25482;DHT22;13395;50.752;4.268;2022-10-31T02:58:38;12.50;99.90
25482;DHT22;13395;50.752;4.268;2022-10-31T03:01:10;12.50;99.90
25482;DHT22;13395;50.752;4.268;2022-10-31T03:06:14;12.40;99.90
25482;DHT22;13395;50.752;4.268;2022-10-31T03:08:45;12.40;99.90
25482;DHT22;13395;50.752;4.268;2022-10-31T03:11:15;12.30;99.90
25482;DHT22;13395;50.752;4.268;2022-10-31T03:16:13;12.20;99.90
25482;DHT22;13395;50.752;4.268;2022-10-31T03:18:50;12.10;99.90
25482;DHT22;13395;50.752;4.268;2022-10-31T03:21:21;12.00;99.90
25482;DHT22;13395;50.752;4.268;2022-10-31T03:23:47;12.10;99.90
25482;DHT22;13395;50.752;4.268;2022-10-31T03:26:14;12.10;99.90
25482;DHT22;13395;50.752;4.268;2022-10-31T03:28:45;12.00;99.90
25482;DHT22;13395;50.752;4.268;2022-10-31T03:31:11;11.90;99.90
25482;DHT22;13395;50.752;4.268;2022-10-31T03:33:38;11.80;99.90
25482;DHT22;13395;50.752;4.268;2022-10-31T03:36:04;11.70;99.90
25482;DHT22;13395;50.752;4.268;2022-10-31T03:38:32;11.70;99.90
25482;DHT22;13395;50.752;4.268;2022-10-31T03:40:58;11.70;99.90
25482;DHT22;13395;50.752;4.268;2022-10-31T03:43:27;11.80;99.90
25482;DHT22;13395;50.752;4.268;2022-10-31T03:45:54;11.90;99.90
25482;DHT22;13395;50.752;4.268;2022-10-31T03:48:20;11.90;99.90
25482;DHT22;13395;50.752;4.268;2022-10-31T03:51:06;11.90;99.90
25482;DHT22;13395;50.752;4.268;2022-10-31T03:59:06;11.80;99.90
25482;DHT22;13395;50.752;4.268;2022-10-31T04:01:34;11.80;99.90
25482;DHT22;13395;50.752;4.268;2022-10-31T04:04:02;11.80;99.90
25482;DHT22;13395;50.752;4.268;2022-10-31T04:06:28;11.70;99.90
25482;DHT22;13395;50.752;4.268;2022-10-31T04:08:56;11.70;99.90
25482;DHT22;13395;50.752;4.268;2022-10-31T04:11:23;11.60;99.90
25482;DHT22;13395;50.752;4.268;2022-10-31T04:13:50;11.60;99.90
25482;DHT22;13395;50.752;4.268;2022-10-31T04:16:16;11.50;99.90
25482;DHT22;13395;50.752;4.268;2022-10-31T04:18:42;11.60;99.90
25482;DHT22;13395;50.752;4.268;2022-10-31T04:21:07;11.60;99.90
25482;DHT22;13395;50.752;4.268;2022-10-31T04:23:33;11.60;99.90
25482;DHT22;13395;50.752;4.268;2022-10-31T04:25:59;11.60;99.90
25482;DHT22;13395;50.752;4.268;2022-10-31T04:28:25;11.60;99.90
25482;DHT22;13395;50.752;4.268;2022-10-31T04:30:50;11.50;99.90
25482;DHT22;13395;50.752;4.268;2022-10-31T04:33:16;11.50;99.90
25482;DHT22;13395;50.752;4.268;2022-10-31T04:35:41;11.40;99.90
25482;DHT22;13395;50.752;4.268;2022-10-31T04:38:07;11.40;99.90
25482;DHT22;13395;50.752;4.268;2022-10-31T04:40:32;11.40;99.90
25482;DHT22;13395;50.752;4.268;2022-10-31T04:42:58;11.60;99.90
25482;DHT22;13395;50.752;4.268;2022-10-31T04:45:23;11.50;99.90
25482;DHT22;13395;50.752;4.268;2022-10-31T04:47:49;11.50;99.90
25482;DHT22;13395;50.752;4.268;2022-10-31T04:50:15;11.40;99.90
25482;DHT22;13395;50.752;4.268;2022-10-31T04:52:44;11.40;99.90
25482;DHT22;13395;50.752;4.268;2022-10-31T04:55:10;11.40;99.90
25482;DHT22;13395;50.752;4.268;2022-10-31T04:57:46;11.50;99.90
25482;DHT22;13395;50.752;4.268;2022-10-31T05:00:12;11.50;99.90
25482;DHT22;13395;50.752;4.268;2022-10-31T05:02:45;11.60;99.90
25482;DHT22;13395;50.752;4.268;2022-10-31T05:05:11;11.60;99.90
25482;DHT22;13395;50.752;4.268;2022-10-31T05:07:43;11.60;99.90
25482;DHT22;13395;50.752;4.268;2022-10-31T05:10:10;11.50;99.90
25482;DHT22;13395;50.752;4.268;2022-10-31T05:12:36;11.60;99.90
25482;DHT22;13395;50.752;4.268;2022-10-31T05:15:02;11.60;99.90
25482;DHT22;13395;50.752;4.268;2022-10-31T05:17:27;11.60;99.90
25482;DHT22;13395;50.752;4.268;2022-10-31T05:19:53;11.60;99.90
25482;DHT22;13395;50.752;4.268;2022-10-31T05:22:18;11.70;99.90
25482;DHT22;13395;50.752;4.268;2022-10-31T05:24:44;11.70;99.90
25482;DHT22;13395;50.752;4.268;2022-10-31T05:27:09;11.70;99.90
25482;DHT22;13395;50.752;4.268;2022-10-31T05:29:35;11.70;99.90
25482;DHT22;13395;50.752;4.268;2022-10-31T05:32:01;11.70;99.90
25482;DHT22;13395;50.752;4.268;2022-10-31T05:34:27;11.70;99.90
25482;DHT22;13395;50.752;4.268;2022-10-31T05:36:52;11.80;99.90
25482;DHT22;13395;50.752;4.268;2022-10-31T05:39:18;11.80;99.90
25482;DHT22;13395;50.752;4.268;2022-10-31T05:41:43;11.70;99.90
25482;DHT22;13395;50.752;4.268;2022-10-31T05:44:09;11.80;99.90
25482;DHT22;13395;50.752;4.268;2022-10-31T05:46:34;11.70;99.90
25482;DHT22;13395;50.752;4.268;2022-10-31T05:49:00;11.80;99.90
25482;DHT22;13395;50.752;4.268;2022-10-31T05:51:25;11.90;99.90
25482;DHT22;13395;50.752;4.268;2022-10-31T05:53:51;11.90;99.90
25482;DHT22;13395;50.752;4.268;2022-10-31T05:56:16;11.90;99.90
25482;DHT22;13395;50.752;4.268;2022-10-31T05:58:42;12.00;99.90
25482;DHT22;13395;50.752;4.268;2022-10-31T06:01:07;12.00;99.90
25482;DHT22;13395;50.752;4.268;2022-10-31T06:03:33;12.10;99.90
25482;DHT22;13395;50.752;4.268;2022-10-31T06:05:58;12.20;99.90
25482;DHT22;13395;50.752;4.268;2022-10-31T06:08:24;12.20;99.90
25482;DHT22;13395;50.752;4.268;2022-10-31T06:10:49;12.30;99.90
25482;DHT22;13395;50.752;4.268;2022-10-31T06:13:15;12.30;99.90
25482;DHT22;13395;50.752;4.268;2022-10-31T06:15:41;12.30;99.90
25482;DHT22;13395;50.752;4.268;2022-10-31T06:18:06;12.30;99.90
25482;DHT22;13395;50.752;4.268;2022-10-31T06:20:32;12.40;99.90
25482;DHT22;13395;50.752;4.268;2022-10-31T06:22:58;12.30;99.90
25482;DHT22;13395;50.752;4.268;2022-10-31T06:25:23;12.40;99.90
25482;DHT22;13395;50.752;4.268;2022-10-31T06:27:49;12.50;99.90
25482;DHT22;13395;50.752;4.268;2022-10-31T06:30:14;12.50;99.90
25482;DHT22;13395;50.752;4.268;2022-10-31T06:32:40;12.50;99.90
25482;DHT22;13395;50.752;4.268;2022-10-31T06:35:05;12.60;99.90
25482;DHT22;13395;50.752;4.268;2022-10-31T06:37:31;12.60;99.90
25482;DHT22;13395;50.752;4.268;2022-10-31T06:39:56;12.60;99.90
25482;DHT22;13395;50.752;4.268;2022-10-31T06:42:22;12.70;99.90
25482;DHT22;13395;50.752;4.268;2022-10-31T06:44:47;12.70;99.90
25482;DHT22;13395;50.752;4.268;2022-10-31T06:47:13;12.70;99.90
25482;DHT22;13395;50.752;4.268;2022-10-31T06:49:38;12.70;99.90
25482;DHT22;13395;50.752;4.268;2022-10-31T06:52:04;12.70;99.90
25482;DHT22;13395;50.752;4.268;2022-10-31T06:54:30;12.80;99.90
25482;DHT22;13395;50.752;4.268;2022-10-31T06:56:55;12.90;99.90
25482;DHT22;13395;50.752;4.268;2022-10-31T06:59:21;12.90;99.90
25482;DHT22;13395;50.752;4.268;2022-10-31T07:01:46;13.00;99.90
25482;DHT22;13395;50.752;4.268;2022-10-31T07:04:12;13.00;99.90
25482;DHT22;13395;50.752;4.268;2022-10-31T07:06:37;13.00;99.90
25482;DHT22;13395;50.752;4.268;2022-10-31T07:09:03;13.00;99.90
25482;DHT22;13395;50.752;4.268;2022-10-31T07:11:29;13.00;99.90
25482;DHT22;13395;50.752;4.268;2022-10-31T07:13:54;13.10;99.90
25482;DHT22;13395;50.752;4.268;2022-10-31T07:16:20;13.10;99.90
25482;DHT22;13395;50.752;4.268;2022-10-31T07:18:45;13.10;99.90
25482;DHT22;13395;50.752;4.268;2022-10-31T07:21:11;13.20;99.90
25482;DHT22;13395;50.752;4.268;2022-10-31T07:23:36;13.20;99.90
25482;DHT22;13395;50.752;4.268;2022-10-31T07:26:02;13.20;99.90
25482;DHT22;13395;50.752;4.268;2022-10-31T07:28:28;13.20;99.90
25482;DHT22;13395;50.752;4.268;2022-10-31T07:30:54;13.20;99.90
25482;DHT22;13395;50.752;4.268;2022-10-31T07:33:20;13.20;99.90
25482;DHT22;13395;50.752;4.268;2022-10-31T07:35:46;13.10;99.90
25482;DHT22;13395;50.752;4.268;2022-10-31T07:38:12;13.00;99.90
25482;DHT22;13395;50.752;4.268;2022-10-31T07:40:38;13.20;99.90
25482;DHT22;13395;50.752;4.268;2022-10-31T07:43:03;13.30;99.90
25482;DHT22;13395;50.752;4.268;2022-10-31T07:45:29;13.50;99.90
25482;DHT22;13395;50.752;4.268;2022-10-31T07:47:54;13.60;99.90
25482;DHT22;13395;50.752;4.268;2022-10-31T07:50:24;13.70;99.90
25482;DHT22;13395;50.752;4.268;2022-10-31T07:53:09;13.70;99.90
25482;DHT22;13395;50.752;4.268;2022-10-31T07:55:35;13.90;99.90
25482;DHT22;13395;50.752;4.268;2022-10-31T07:58:01;14.00;99.90
25482;DHT22;13395;50.752;4.268;2022-10-31T08:00:27;14.20;99.90
25482;DHT22;13395;50.752;4.268;2022-10-31T08:02:59;14.20;99.90
25482;DHT22;13395;50.752;4.268;2022-10-31T08:05:25;14.30;99.90
25482;DHT22;13395;50.752;4.268;2022-10-31T08:07:51;14.40;99.90
25482;DHT22;13395;50.752;4.268;2022-10-31T08:10:16;14.40;99.90
25482;DHT22;13395;50.752;4.268;2022-10-31T08:12:42;14.50;99.90
25482;DHT22;13395;50.752;4.268;2022-10-31T08:15:08;14.60;99.90
25482;DHT22;13395;50.752;4.268;2022-10-31T08:17:36;14.70;99.90
25482;DHT22;13395;50.752;4.268;2022-10-31T08:20:03;14.70;99.90
25482;DHT22;13395;50.752;4.268;2022-10-31T08:22:28;14.80;99.90
25482;DHT22;13395;50.752;4.268;2022-10-31T08:24:54;14.70;99.90
25482;DHT22;13395;50.752;4.268;2022-10-31T08:27:19;14.80;99.90
25482;DHT22;13395;50.752;4.268;2022-10-31T08:29:45;14.70;99.90
25482;DHT22;13395;50.752;4.268;2022-10-31T08:32:10;14.90;99.90
25482;DHT22;13395;50.752;4.268;2022-10-31T08:34:36;14.80;99.90
25482;DHT22;13395;50.752;4.268;2022-10-31T08:37:01;14.80;99.90
25482;DHT22;13395;50.752;4.268;2022-10-31T08:39:26;14.90;99.90
25482;DHT22;13395;50.752;4.268;2022-10-31T08:41:52;15.00;99.90
25482;DHT22;13395;50.752;4.268;2022-10-31T08:44:17;15.20;99.90
25482;DHT22;13395;50.752;4.268;2022-10-31T08:46:43;15.30;99.90
25482;DHT22;13395;50.752;4.268;2022-10-31T08:49:08;15.40;99.90
25482;DHT22;13395;50.752;4.268;2022-10-31T08:51:34;15.60;99.90
25482;DHT22;13395;50.752;4.268;2022-10-31T08:53:59;15.70;99.90
25482;DHT22;13395;50.752;4.268;2022-10-31T08:56:25;16.00;99.90
25482;DHT22;13395;50.752;4.268;2022-10-31T08:58:52;16.10;99.90
25482;DHT22;13395;50.752;4.268;2022-10-31T09:01:17;16.20;99.90
25482;DHT22;13395;50.752;4.268;2022-10-31T09:03:43;16.30;99.90
25482;DHT22;13395;50.752;4.268;2022-10-31T09:06:08;16.30;99.90
25482;DHT22;13395;50.752;4.268;2022-10-31T09:08:34;16.40;99.90
25482;DHT22;13395;50.752;4.268;2022-10-31T09:11:00;16.30;99.90
25482;DHT22;13395;50.752;4.268;2022-10-31T09:13:25;16.30;99.90
25482;DHT22;13395;50.752;4.268;2022-10-31T09:15:51;16.20;99.90
25482;DHT22;13395;50.752;4.268;2022-10-31T09:18:18;16.30;99.90
25482;DHT22;13395;50.752;4.268;2022-10-31T09:20:44;16.00;99.90
25482;DHT22;13395;50.752;4.268;2022-10-31T09:23:17;16.00;99.90
25482;DHT22;13395;50.752;4.268;2022-10-31T09:25:43;15.80;99.90
25482;DHT22;13395;50.752;4.268;2022-10-31T09:28:10;15.80;99.90
25482;DHT22;13395;50.752;4.268;2022-10-31T09:30:36;15.90;99.90
25482;DHT22;13395;50.752;4.268;2022-10-31T09:33:03;15.90;99.90
25482;DHT22;13395;50.752;4.268;2022-10-31T09:35:29;15.90;99.90
25482;DHT22;13395;50.752;4.268;2022-10-31T09:37:59;16.00;99.90
25482;DHT22;13395;50.752;4.268;2022-10-31T09:40:27;16.10;99.90
25482;DHT22;13395;50.752;4.268;2022-10-31T09:43:02;16.20;99.90
25482;DHT22;13395;50.752;4.268;2022-10-31T09:45:35;16.30;99.90
25482;DHT22;13395;50.752;4.268;2022-10-31T09:50:55;16.40;99.90
25482;DHT22;13395;50.752;4.268;2022-10-31T09:55:55;16.90;99.90
25482;DHT22;13395;50.752;4.268;2022-10-31T09:58:29;17.00;99.90
25482;DHT22;13395;50.752;4.268;2022-10-31T10:00:56;17.20;99.90
25482;DHT22;13395;50.752;4.268;2022-10-31T10:05:51;17.30;99.90
25482;DHT22;13395;50.752;4.268;2022-10-31T10:08:19;17.40;99.90
25482;DHT22;13395;50.752;4.268;2022-10-31T10:13:40;17.70;99.90
25482;DHT22;13395;50.752;4.268;2022-10-31T10:21:24;18.30;99.90
25482;DHT22;13395;50.752;4.268;2022-10-31T10:26:20;18.30;99.90
25482;DHT22;13395;50.752;4.268;2022-10-31T10:28:50;18.30;99.90
25482;DHT22;13395;50.752;4.268;2022-10-31T10:31:19;18.20;99.90
25482;DHT22;13395;50.752;4.268;2022-10-31T10:36:21;18.10;99.90
25482;DHT22;13395;50.752;4.268;2022-10-31T10:38:51;18.10;99.90
25482;DHT22;13395;50.752;4.268;2022-10-31T10:41:18;18.00;99.90
25482;DHT22;13395;50.752;4.268;2022-10-31T10:43:45;17.80;99.90
25482;DHT22;13395;50.752;4.268;2022-10-31T10:48:57;17.80;99.90
25482;DHT22;13395;50.752;4.268;2022-10-31T10:51:38;17.90;99.90
25482;DHT22;13395;50.752;4.268;2022-10-31T10:59:24;18.30;99.90
25482;DHT22;13395;50.752;4.268;2022-10-31T11:01:51;18.50;99.90
25482;DHT22;13395;50.752;4.268;2022-10-31T11:04:23;18.60;99.90
25482;DHT22;13395;50.752;4.268;2022-10-31T11:07:00;18.70;99.90
25482;DHT22;13395;50.752;4.268;2022-10-31T11:09:25;18.60;99.90
25482;DHT22;13395;50.752;4.268;2022-10-31T11:11:51;19.00;99.90
25482;DHT22;13395;50.752;4.268;2022-10-31T11:14:17;19.20;99.90
25482;DHT22;13395;50.752;4.268;2022-10-31T11:16:43;19.20;99.90
25482;DHT22;13395;50.752;4.268;2022-10-31T11:19:20;19.50;99.90
25482;DHT22;13395;50.752;4.268;2022-10-31T11:21:46;19.60;99.90
25482;DHT22;13395;50.752;4.268;2022-10-31T11:24:13;19.90;99.90
25482;DHT22;13395;50.752;4.268;2022-10-31T11:26:41;19.80;99.90
25482;DHT22;13395;50.752;4.268;2022-10-31T11:29:25;20.00;99.90
25482;DHT22;13395;50.752;4.268;2022-10-31T11:31:55;19.90;99.90
25482;DHT22;13395;50.752;4.268;2022-10-31T11:36:56;20.30;99.90
25482;DHT22;13395;50.752;4.268;2022-10-31T11:39:24;20.40;99.90
25482;DHT22;13395;50.752;4.268;2022-10-31T11:41:50;20.60;99.90
25482;DHT22;13395;50.752;4.268;2022-10-31T11:46:43;20.30;99.90
25482;DHT22;13395;50.752;4.268;2022-10-31T11:49:15;20.00;99.90
25482;DHT22;13395;50.752;4.268;2022-10-31T11:51:42;20.20;99.90
25482;DHT22;13395;50.752;4.268;2022-10-31T11:54:15;20.30;99.90
25482;DHT22;13395;50.752;4.268;2022-10-31T11:56:43;20.50;99.90
25482;DHT22;13395;50.752;4.268;2022-10-31T11:59:22;20.70;99.90
25482;DHT22;13395;50.752;4.268;2022-10-31T12:01:49;20.60;99.90
25482;DHT22;13395;50.752;4.268;2022-10-31T12:04:15;21.10;99.90
25482;DHT22;13395;50.752;4.268;2022-10-31T12:06:45;21.60;99.90
25482;DHT22;13395;50.752;4.268;2022-10-31T12:16:57;22.80;99.90
25482;DHT22;13395;50.752;4.268;2022-10-31T12:24:40;23.70;99.90
25482;DHT22;13395;50.752;4.268;2022-10-31T12:27:15;24.30;99.90
25482;DHT22;13395;50.752;4.268;2022-10-31T12:32:29;26.20;99.90
25482;DHT22;13395;50.752;4.268;2022-10-31T12:40:17;28.90;99.60
25482;DHT22;13395;50.752;4.268;2022-10-31T12:45:24;30.30;97.40
25482;DHT22;13395;50.752;4.268;2022-10-31T12:58:32;28.20;93.10
25482;DHT22;13395;50.752;4.268;2022-10-31T13:01:09;29.00;93.30
25482;DHT22;13395;50.752;4.268;2022-10-31T13:06:13;29.20;91.20
25482;DHT22;13395;50.752;4.268;2022-10-31T13:08:40;29.30;92.40
25482;DHT22;13395;50.752;4.268;2022-10-31T13:11:24;29.50;91.70
25482;DHT22;13395;50.752;4.268;2022-10-31T13:16:24;30.50;91.30
25482;DHT22;13395;50.752;4.268;2022-10-31T13:18:54;30.30;90.10
25482;DHT22;13395;50.752;4.268;2022-10-31T13:21:21;30.00;88.90
25482;DHT22;13395;50.752;4.268;2022-10-31T13:23:49;30.00;90.90
25482;DHT22;13395;50.752;4.268;2022-10-31T13:26:21;29.70;90.80
25482;DHT22;13395;50.752;4.268;2022-10-31T13:31:25;30.20;90.80
25482;DHT22;13395;50.752;4.268;2022-10-31T13:36:45;29.70;90.00
25482;DHT22;13395;50.752;4.268;2022-10-31T13:39:20;29.80;90.30
25482;DHT22;13395;50.752;4.268;2022-10-31T13:41:49;29.50;89.70
25482;DHT22;13395;50.752;4.268;2022-10-31T13:44:28;29.10;90.80
25482;DHT22;13395;50.752;4.268;2022-10-31T13:46:56;28.60;90.60
25482;DHT22;13395;50.752;4.268;2022-10-31T13:54:41;28.70;90.70
25482;DHT22;13395;50.752;4.268;2022-10-31T13:57:07;28.60;91.00
25482;DHT22;13395;50.752;4.268;2022-10-31T13:59:39;28.00;88.60
25482;DHT22;13395;50.752;4.268;2022-10-31T14:02:15;27.10;91.00
25482;DHT22;13395;50.752;4.268;2022-10-31T14:04:46;26.40;91.10
25482;DHT22;13395;50.752;4.268;2022-10-31T14:07:13;25.50;92.20
25482;DHT22;13395;50.752;4.268;2022-10-31T14:09:57;25.30;92.60
25482;DHT22;13395;50.752;4.268;2022-10-31T14:12:28;24.30;93.60
25482;DHT22;13395;50.752;4.268;2022-10-31T14:15:03;23.30;95.20
25482;DHT22;13395;50.752;4.268;2022-10-31T14:17:32;22.60;95.90
25482;DHT22;13395;50.752;4.268;2022-10-31T14:20:00;21.90;97.40
25482;DHT22;13395;50.752;4.268;2022-10-31T14:22:30;21.50;98.20
25482;DHT22;13395;50.752;4.268;2022-10-31T14:24:56;21.40;99.00
25482;DHT22;13395;50.752;4.268;2022-10-31T14:29:50;21.10;99.90
25482;DHT22;13395;50.752;4.268;2022-10-31T14:32:21;21.00;99.90
25482;DHT22;13395;50.752;4.268;2022-10-31T14:52:25;20.60;99.90
25482;DHT22;13395;50.752;4.268;2022-10-31T14:54:53;20.70;99.90
25482;DHT22;13395;50.752;4.268;2022-10-31T14:57:20;20.70;99.90
25482;DHT22;13395;50.752;4.268;2022-10-31T14:59:48;20.70;99.90
25482;DHT22;13395;50.752;4.268;2022-10-31T15:02:18;20.70;99.90
25482;DHT22;13395;50.752;4.268;2022-10-31T15:04:44;20.60;99.90
25482;DHT22;13395;50.752;4.268;2022-10-31T15:07:18;20.50;99.90
25482;DHT22;13395;50.752;4.268;2022-10-31T15:09:54;20.40;99.90
25482;DHT22;13395;50.752;4.268;2022-10-31T15:14:51;20.20;99.90
25482;DHT22;13395;50.752;4.268;2022-10-31T15:17:17;20.10;99.90
25482;DHT22;13395;50.752;4.268;2022-10-31T15:19:43;20.10;99.90
25482;DHT22;13395;50.752;4.268;2022-10-31T15:22:10;20.10;99.90
25482;DHT22;13395;50.752;4.268;2022-10-31T15:24:38;20.00;99.90
25482;DHT22;13395;50.752;4.268;2022-10-31T15:27:04;20.00;99.90
25482;DHT22;13395;50.752;4.268;2022-10-31T15:29:29;19.90;99.90
25482;DHT22;13395;50.752;4.268;2022-10-31T15:31:58;19.90;99.90
25482;DHT22;13395;50.752;4.268;2022-10-31T15:34:37;19.70;99.90
25482;DHT22;13395;50.752;4.268;2022-10-31T15:37:04;19.60;99.90
25482;DHT22;13395;50.752;4.268;2022-10-31T15:39:29;19.60;99.90
25482;DHT22;13395;50.752;4.268;2022-10-31T15:41:56;19.60;99.90
25482;DHT22;13395;50.752;4.268;2022-10-31T15:44:32;19.50;99.90
25482;DHT22;13395;50.752;4.268;2022-10-31T15:46:59;19.30;99.90
25482;DHT22;13395;50.752;4.268;2022-10-31T15:52:04;19.10;99.90
25482;DHT22;13395;50.752;4.268;2022-10-31T15:54:31;19.10;99.90
25482;DHT22;13395;50.752;4.268;2022-10-31T15:56:57;19.10;99.90
25482;DHT22;13395;50.752;4.268;2022-10-31T15:59:23;19.00;99.90
25482;DHT22;13395;50.752;4.268;2022-10-31T16:02:00;19.00;99.90
25482;DHT22;13395;50.752;4.268;2022-10-31T16:04:26;18.90;99.90
25482;DHT22;13395;50.752;4.268;2022-10-31T16:06:59;18.80;99.90
25482;DHT22;13395;50.752;4.268;2022-10-31T16:09:25;18.70;99.90
25482;DHT22;13395;50.752;4.268;2022-10-31T16:11:51;18.60;99.90
25482;DHT22;13395;50.752;4.268;2022-10-31T16:14:22;18.50;99.90
25482;DHT22;13395;50.752;4.268;2022-10-31T16:16:49;18.40;99.90
25482;DHT22;13395;50.752;4.268;2022-10-31T16:19:18;18.30;99.90
25482;DHT22;13395;50.752;4.268;2022-10-31T16:21:45;18.20;99.90
25482;DHT22;13395;50.752;4.268;2022-10-31T16:26:36;18.00;99.90
25482;DHT22;13395;50.752;4.268;2022-10-31T16:29:02;18.00;99.90
25482;DHT22;13395;50.752;4.268;2022-10-31T16:31:29;17.90;99.90
25482;DHT22;13395;50.752;4.268;2022-10-31T16:34:02;17.80;99.90
25482;DHT22;13395;50.752;4.268;2022-10-31T16:38:53;17.70;99.90
25482;DHT22;13395;50.752;4.268;2022-10-31T16:41:19;17.50;99.90
25482;DHT22;13395;50.752;4.268;2022-10-31T16:43:45;17.50;99.90
25482;DHT22;13395;50.752;4.268;2022-10-31T16:46:14;17.50;99.90
25482;DHT22;13395;50.752;4.268;2022-10-31T16:48:40;17.50;99.90
25482;DHT22;13395;50.752;4.268;2022-10-31T16:51:06;17.40;99.90
25482;DHT22;13395;50.752;4.268;2022-10-31T16:53:32;17.40;99.90
25482;DHT22;13395;50.752;4.268;2022-10-31T16:55:58;17.30;99.90
25482;DHT22;13395;50.752;4.268;2022-10-31T16:58:25;17.30;99.90
25482;DHT22;13395;50.752;4.268;2022-10-31T17:00:51;17.20;99.90
25482;DHT22;13395;50.752;4.268;2022-10-31T17:03:17;17.30;99.90
25482;DHT22;13395;50.752;4.268;2022-10-31T17:05:43;17.20;99.90
25482;DHT22;13395;50.752;4.268;2022-10-31T17:08:08;17.20;99.90
25482;DHT22;13395;50.752;4.268;2022-10-31T17:10:34;17.30;99.90
25482;DHT22;13395;50.752;4.268;2022-10-31T17:13:00;17.30;99.90
25482;DHT22;13395;50.752;4.268;2022-10-31T17:15:28;17.20;99.90
25482;DHT22;13395;50.752;4.268;2022-10-31T17:17:54;17.30;99.90
25482;DHT22;13395;50.752;4.268;2022-10-31T17:20:21;17.30;99.90
25482;DHT22;13395;50.752;4.268;2022-10-31T17:22:47;17.20;99.90
25482;DHT22;13395;50.752;4.268;2022-10-31T17:25:17;17.20;99.90
25482;DHT22;13395;50.752;4.268;2022-10-31T17:27:43;17.20;99.90
25482;DHT22;13395;50.752;4.268;2022-10-31T17:30:09;17.30;99.90
25482;DHT22;13395;50.752;4.268;2022-10-31T17:32:35;17.30;99.90
25482;DHT22;13395;50.752;4.268;2022-10-31T17:35:01;17.30;99.90
25482;DHT22;13395;50.752;4.268;2022-10-31T17:37:26;17.20;99.90
25482;DHT22;13395;50.752;4.268;2022-10-31T17:39:52;17.10;99.90
25482;DHT22;13395;50.752;4.268;2022-10-31T17:42:17;17.10;99.90
25482;DHT22;13395;50.752;4.268;2022-10-31T17:44:42;17.10;99.90
25482;DHT22;13395;50.752;4.268;2022-10-31T17:47:08;17.10;99.90
25482;DHT22;13395;50.752;4.268;2022-10-31T17:49:33;17.20;99.90
25482;DHT22;13395;50.752;4.268;2022-10-31T17:51:59;17.30;99.90
25482;DHT22;13395;50.752;4.268;2022-10-31T17:54:25;17.20;99.90
25482;DHT22;13395;50.752;4.268;2022-10-31T17:56:52;17.20;99.90